SBKPFMMI

Guest
Details From SBKP - Sao Paulo Viracopos
To FMMI - Ivato
Flight Number -
Tags Generated
Created
Modified
Stats Distance 5,213 nm / 9,655 km
Max Altitude 0 ft / 0 m
Waypoints 5
Social Downloads 0
Likes 0
Share VATSIM

Download

Looking for another format? Having issues loading an existing format? Contact us
Advertisement - Login to hide

Notes

Generated

Route

SBKP MH NESAG IA FMMI

ID Type Via Altitude Latitude Longitude Leg Dist Tot Dist Heading (true) Name
O SBKP APT - 0 ft / 0 m -22.99843˚ -47.14702˚ - 0 nm - -
MH NDB - 0 ft / 0 m -25.74143˚ 25.57499˚ 3928 nm 3928 nm 109° / 75° MAFIKENG NDB
NESAG FIX - 0 ft / 0 m -24.94672˚ 28.85098˚ 184 nm 4113 nm 76° / 74° -
IA NDB - 0 ft / 0 m -18.79336˚ 47.45492˚ 1099 nm 5212 nm 74° / 67° ANTANANARIVO IVATO NDB
O FMMI APT - 0 ft / 0 m -18.79479˚ 47.46427˚ 0 nm 5213 nm 99° / 99° -

Altitude Profile

Advertisement - Login to hide

Weather


0- 5 10 15 20 25 30 35+ Temperature / ° C

Clouds and Precipitation
Forecast for 2017-12-14 00:00 UTC. Updated 2 hours ago

Ground ~20,000 ft ~40,000 ft Winds

SBKP

Details ICAO SBKP (VCP)
Name Sao Paulo Viracopos
Region Brazil
Timezone America/Sao_Paulo (UTC-2.0)
Stats Elevation 2,170 ft / 661 m (AMSL)
Location -23.007383° -47.134522°
Runways 1
Magnetic Variation 21.194° W

METAR

SBKP 140000Z 12012KT CAVOK 22/17 Q1017

Decode

TAF

TAF SBKP 132202Z 1400/1424 14010KT CAVOK TN17/1408Z TX31/1417Z BECMG 1414/1416 17007KT PROB30 1416/1420 TS BKN040 FEW045CB BECMG 1420/1422 15005KT CAVOK RMK PHM

Decode

Departure Runways

ID Width Length Bearing (true) Bearing (mag) Surface Threshold Offset Overrun Length
15 148 ft / 45 m 10,639 ft / 3,243 m 127.91° 149.10° Asphalt 0 ft / 0 m 205 ft / 62 m
33 148 ft / 45 m 10,639 ft / 3,243 m 307.90° 329.09° Asphalt 0 ft / 0 m 205 ft / 62 m

FMMI

Details ICAO FMMI (TNR)
Name IVATO
Region Comoros, Mayotte, Réunion and Madagascar
Timezone Indian/Antananarivo (UTC+3.0)
Stats Elevation 4,198 ft / 1,280 m (AMSL)
Location -18.796950° 47.478806°
Runways 1
Magnetic Variation 15.161° W

METAR

FMMI 140030Z 07005KT 9999 FEW006 BKN020 19/18 Q1020 NOSIG

Decode

TAF

TAF FMMI 132300Z 1400/1506 00000KT 9999 FEW007 SCT017 BKN020 BECMG 1406/1409 08010KT PROB30 TEMPO 1415/1501 4500 TSRA BKN015CB SCT020 BECMG 1416/1419 00000KT

Decode

Destination Runways

ID Width Length Bearing (true) Bearing (mag) Surface Threshold Offset Overrun Length
11 148 ft / 45 m 10,167 ft / 3,099 m 98.92° 114.08° Asphalt 0 ft / 0 m 90 ft / 27 m
29 148 ft / 45 m 10,167 ft / 3,099 m 278.91° 294.07° Asphalt 0 ft / 0 m 90 ft / 27 m

Approach Navaids

Runway Type Ident Frequency Range Bearing (true) Bearing (mag) Slope Elevation
11 Localiser IO 109.50 MHz 18 nm / 33 km 98.89° 114.05° - 4,125 ft / 1,257 m (AMSL)
11 Glidescope IO 109.50 MHz 10 nm / 19 km 98.91° 114.07° 3.00° 4,198 ft / 1,280 m (AMSL)